createdAt,value
2022-12-24T00:00:16.713Z,100.00
2022-12-24T00:03:25.717Z,100.00
2022-12-24T00:06:40.729Z,100.00
2022-12-24T00:09:49.437Z,100.00
2022-12-24T00:12:57.722Z,100.00
2022-12-24T00:16:06.907Z,100.00
2022-12-24T00:19:21.974Z,100.00
2022-12-24T00:22:23.924Z,100.00
2022-12-24T00:25:38.751Z,100.00
2022-12-24T00:28:41.033Z,100.00
2022-12-24T00:31:55.765Z,100.00
2022-12-24T00:35:04.598Z,100.00
2022-12-24T00:38:13.715Z,100.00
2022-12-24T00:41:28.743Z,100.00
2022-12-24T00:44:36.693Z,100.00
2022-12-24T00:47:51.684Z,100.00
2022-12-24T00:50:55.374Z,100.00
2022-12-24T00:54:10.685Z,100.00
2022-12-24T00:57:25.717Z,100.00
2022-12-24T01:00:29.460Z,100.00
2022-12-24T01:03:44.840Z,100.00
2022-12-24T01:06:53.822Z,100.00
2022-12-24T01:10:09.872Z,100.00
2022-12-24T01:13:11.832Z,100.00
2022-12-24T01:16:26.878Z,100.00
2022-12-24T01:19:35.829Z,100.00
2022-12-24T01:22:50.796Z,100.00
2022-12-24T01:26:06.155Z,100.00
2022-12-24T01:29:20.779Z,100.00
2022-12-24T01:32:22.796Z,100.00
2022-12-24T01:35:37.914Z,100.00
2022-12-24T01:38:40.285Z,100.00
2022-12-24T01:41:54.753Z,100.00
2022-12-24T01:44:56.589Z,100.00
2022-12-24T01:48:15.793Z,100.00
2022-12-24T01:51:36.841Z,100.00
2022-12-24T01:54:59.728Z,100.00
2022-12-24T01:58:11.754Z,100.00
2022-12-24T02:01:26.986Z,100.00
2022-12-24T02:04:44.153Z,100.00
2022-12-24T02:07:59.760Z,100.00
2022-12-24T02:11:12.963Z,100.00
2022-12-24T02:14:22.763Z,100.00
2022-12-24T02:17:53.748Z,100.00
2022-12-24T02:21:28.768Z,100.00
2022-12-24T02:25:08.761Z,100.00
2022-12-24T02:28:46.800Z,100.00
2022-12-24T02:32:04.986Z,100.00
2022-12-24T02:35:37.753Z,100.00
2022-12-24T02:38:50.055Z,100.00
2022-12-24T02:42:06.820Z,100.00
2022-12-24T02:45:18.550Z,100.00
2022-12-24T02:48:36.859Z,100.00
2022-12-24T02:51:51.719Z,100.00
2022-12-24T02:54:53.693Z,100.00
2022-12-24T02:58:29.743Z,100.00
2022-12-24T03:02:07.893Z,100.00
2022-12-24T03:05:37.765Z,100.00
2022-12-24T03:08:55.090Z,100.00
2022-12-24T03:12:17.785Z,100.00
2022-12-24T03:15:28.782Z,100.00
2022-12-24T03:18:40.765Z,100.00
2022-12-24T03:21:49.771Z,100.00
2022-12-24T03:25:05.621Z,100.00
2022-12-24T03:28:15.850Z,100.00
2022-12-24T03:31:24.605Z,100.00
2022-12-24T03:34:40.865Z,100.00
2022-12-24T03:37:42.816Z,100.00
2022-12-24T03:41:01.836Z,100.00
2022-12-24T03:44:10.784Z,100.00
2022-12-24T03:47:19.517Z,100.00
2022-12-24T03:50:28.803Z,100.00
2022-12-24T03:53:37.380Z,100.00
2022-12-24T03:56:45.788Z,100.00
2022-12-24T04:00:00.897Z,100.00
2022-12-24T04:03:09.824Z,100.00
2022-12-24T04:06:24.887Z,100.00
2022-12-24T04:09:26.901Z,100.00
2022-12-24T04:12:42.856Z,100.00
2022-12-24T04:15:50.781Z,100.00
2022-12-24T04:18:59.542Z,100.00
2022-12-24T04:22:07.804Z,100.00
2022-12-24T04:25:23.172Z,100.00
2022-12-24T04:28:31.865Z,100.00
2022-12-24T04:31:40.660Z,100.00
2022-12-24T04:34:48.788Z,100.00
2022-12-24T04:38:04.943Z,100.00
2022-12-24T04:41:23.311Z,100.00
2022-12-24T04:44:32.548Z,100.00
2022-12-24T04:47:40.828Z,100.00
2022-12-24T04:50:56.847Z,100.00
2022-12-24T04:54:04.854Z,100.00
2022-12-24T04:57:13.456Z,100.00
2022-12-24T05:00:24.829Z,100.00
2022-12-24T05:03:34.591Z,100.00
2022-12-24T05:06:49.808Z,100.00
2022-12-24T05:10:04.962Z,100.00
2022-12-24T05:13:06.960Z,100.00
2022-12-24T05:16:23.864Z,100.00
2022-12-24T05:19:25.773Z,100.00
2022-12-24T05:22:40.842Z,100.00
2022-12-24T05:25:49.220Z,100.00
2022-12-24T05:29:05.924Z,100.00
2022-12-24T05:32:21.830Z,100.00
2022-12-24T05:35:30.518Z,100.00
2022-12-24T05:38:38.847Z,100.00
2022-12-24T05:41:53.964Z,100.00
2022-12-24T05:45:02.520Z,100.00
2022-12-24T05:48:16.924Z,100.00
2022-12-24T05:51:26.733Z,100.00
2022-12-24T05:54:34.868Z,100.00
2022-12-24T05:57:49.861Z,100.00
2022-12-24T06:00:53.681Z,100.00
2022-12-24T06:04:08.873Z,100.00
2022-12-24T06:07:10.944Z,100.00
2022-12-24T06:10:25.827Z,100.00
2022-12-24T06:13:28.548Z,100.00
2022-12-24T06:16:42.852Z,100.00
2022-12-24T06:19:44.769Z,100.00
2022-12-24T06:22:59.880Z,100.00
2022-12-24T06:26:09.465Z,100.00
2022-12-24T06:29:23.893Z,100.00
2022-12-24T06:32:32.641Z,100.00
2022-12-24T06:35:40.912Z,100.00
2022-12-24T06:38:50.818Z,100.00
2022-12-24T06:41:58.864Z,100.00
2022-12-24T06:45:14.951Z,100.00
2022-12-24T06:48:29.941Z,100.00
2022-12-24T06:51:38.580Z,100.00
2022-12-24T06:54:52.942Z,100.00
2022-12-24T06:58:01.915Z,100.00
2022-12-24T07:01:15.869Z,99.02
2022-12-24T07:04:30.922Z,97.62
2022-12-24T07:07:32.845Z,97.61
2022-12-24T07:10:54.938Z,97.44
2022-12-24T07:13:56.828Z,97.15
2022-12-24T07:17:12.075Z,97.20
2022-12-24T07:20:29.919Z,97.95
2022-12-24T07:23:31.794Z,98.19
2022-12-24T07:26:46.936Z,98.52
2022-12-24T07:30:01.905Z,98.71
2022-12-24T07:33:11.050Z,98.85
2022-12-24T07:36:25.953Z,98.84
2022-12-24T07:39:34.898Z,98.77
2022-12-24T07:42:42.949Z,98.25
2022-12-24T07:46:01.934Z,97.87
2022-12-24T07:49:04.086Z,97.32
2022-12-24T07:52:20.006Z,97.22
2022-12-24T07:55:30.207Z,97.10
2022-12-24T07:58:38.763Z,97.53
2022-12-24T08:01:48.175Z,97.35
2022-12-24T08:04:56.518Z,96.74
2022-12-24T08:08:04.923Z,97.24
2022-12-24T08:11:14.525Z,97.33
2022-12-24T08:14:28.976Z,97.22
2022-12-24T08:17:32.560Z,97.53
2022-12-24T08:20:48.998Z,96.64
2022-12-24T08:23:50.828Z,96.39
2022-12-24T08:27:05.956Z,96.88
2022-12-24T08:30:21.510Z,96.08
2022-12-24T08:33:37.909Z,95.42
2022-12-24T08:36:52.911Z,95.22
2022-12-24T08:39:55.044Z,94.98
2022-12-24T08:43:10.974Z,94.57
2022-12-24T08:46:13.027Z,94.54
2022-12-24T08:49:27.961Z,94.28
2022-12-24T08:52:37.240Z,94.21
2022-12-24T08:55:55.911Z,94.08
2022-12-24T08:59:05.035Z,94.26
2022-12-24T09:02:20.129Z,94.28
2022-12-24T09:05:22.236Z,94.06
2022-12-24T09:08:37.991Z,92.87
2022-12-24T09:11:39.884Z,91.67
2022-12-24T09:15:02.936Z,91.23
2022-12-24T09:18:05.784Z,90.68
2022-12-24T09:21:22.977Z,90.52
2022-12-24T09:24:25.159Z,90.15
2022-12-24T09:27:46.985Z,89.18
2022-12-24T09:31:07.036Z,88.74
2022-12-24T09:34:28.300Z,88.40
2022-12-24T09:37:47.201Z,88.16
2022-12-24T09:41:08.776Z,87.25
2022-12-24T09:44:29.080Z,86.59
2022-12-24T09:47:48.974Z,86.29
2022-12-24T09:51:17.110Z,85.57
2022-12-24T09:54:32.597Z,85.91
2022-12-24T09:57:46.020Z,85.77
2022-12-24T10:00:56.450Z,84.11
2022-12-24T10:04:10.993Z,81.99
2022-12-24T10:07:43.950Z,82.16
2022-12-24T10:10:53.772Z,82.33
2022-12-24T10:14:24.967Z,83.13
2022-12-24T10:17:45.211Z,83.12
2022-12-24T10:21:12.990Z,82.92
2022-12-24T10:24:27.537Z,82.25
2022-12-24T10:27:49.079Z,81.52
2022-12-24T10:31:03.191Z,80.24
2022-12-24T10:34:21.972Z,79.90
2022-12-24T10:37:30.901Z,79.49
2022-12-24T10:40:50.050Z,79.23
2022-12-24T10:44:02.733Z,79.66
2022-12-24T10:47:14.993Z,79.35
2022-12-24T10:50:39.013Z,78.54
2022-12-24T10:53:46.897Z,77.69
2022-12-24T10:57:06.089Z,77.59
2022-12-24T11:00:19.512Z,77.71
2022-12-24T11:03:41.127Z,77.99
2022-12-24T11:07:03.059Z,77.63
2022-12-24T11:10:08.722Z,76.99
2022-12-24T11:13:40.248Z,76.90
2022-12-24T11:16:54.234Z,74.84
2022-12-24T11:20:03.036Z,74.20
2022-12-24T11:23:24.012Z,74.33
2022-12-24T11:26:49.094Z,72.75
2022-12-24T11:30:19.378Z,70.51
2022-12-24T11:33:36.030Z,69.77
2022-12-24T11:36:37.907Z,67.00
2022-12-24T11:39:58.028Z,67.44
2022-12-24T11:43:14.854Z,67.52
2022-12-24T11:46:43.087Z,66.24
2022-12-24T11:50:17.210Z,66.53
2022-12-24T11:53:45.062Z,66.50
2022-12-24T11:56:51.236Z,66.01
2022-12-24T12:00:06.174Z,65.73
2022-12-24T12:03:37.646Z,65.28
2022-12-24T12:06:57.083Z,67.11
2022-12-24T12:10:35.056Z,65.75
2022-12-24T12:13:46.411Z,65.53
2022-12-24T12:17:05.036Z,65.91
2022-12-24T12:20:26.625Z,65.71
2022-12-24T12:23:41.121Z,64.87
2022-12-24T12:27:08.011Z,64.04
2022-12-24T12:30:27.089Z,63.57
2022-12-24T12:33:40.598Z,63.16
2022-12-24T12:37:00.038Z,63.50
2022-12-24T12:40:02.197Z,63.08
2022-12-24T12:43:48.057Z,63.66
2022-12-24T12:47:17.985Z,63.35
2022-12-24T12:50:44.077Z,63.29
2022-12-24T12:54:12.044Z,63.59
2022-12-24T12:57:33.093Z,64.22
2022-12-24T13:00:40.286Z,65.18
2022-12-24T13:04:25.193Z,64.05
2022-12-24T13:07:59.414Z,64.71
2022-12-24T13:11:31.090Z,63.84
2022-12-24T13:15:11.103Z,64.68
2022-12-24T13:18:41.501Z,65.26
2022-12-24T13:21:59.141Z,65.66
2022-12-24T13:25:28.133Z,66.01
2022-12-24T13:28:36.893Z,66.56
2022-12-24T13:31:45.235Z,67.63
2022-12-24T13:34:57.698Z,67.59
2022-12-24T13:38:46.135Z,68.07
2022-12-24T13:41:54.925Z,68.45
2022-12-24T13:45:33.122Z,68.64
2022-12-24T13:48:48.174Z,70.04
2022-12-24T13:51:50.052Z,69.42
2022-12-24T13:55:12.183Z,69.75
2022-12-24T13:58:18.705Z,69.24
2022-12-24T14:01:44.308Z,69.77
2022-12-24T14:04:51.339Z,69.91
2022-12-24T14:08:09.185Z,70.41
2022-12-24T14:11:16.655Z,70.51
2022-12-24T14:14:43.115Z,70.98
2022-12-24T14:17:55.111Z,70.85
2022-12-24T14:21:05.796Z,72.35
2022-12-24T14:24:22.165Z,72.13
2022-12-24T14:27:50.208Z,71.84
2022-12-24T14:31:03.147Z,72.72
2022-12-24T14:34:20.132Z,73.33
2022-12-24T14:37:34.558Z,73.67
2022-12-24T14:40:57.128Z,74.39
2022-12-24T14:44:29.702Z,74.09
2022-12-24T14:47:52.136Z,74.13
2022-12-24T14:51:24.175Z,75.55
2022-12-24T14:54:46.170Z,74.96
2022-12-24T14:58:21.190Z,76.22
2022-12-24T15:01:39.281Z,75.42
2022-12-24T15:04:48.139Z,75.14
2022-12-24T15:08:00.556Z,76.85
2022-12-24T15:11:12.190Z,76.76
2022-12-24T15:14:23.348Z,77.78
2022-12-24T15:17:33.177Z,78.45
2022-12-24T15:20:52.167Z,78.97
2022-12-24T15:23:54.125Z,79.24
2022-12-24T15:27:26.176Z,79.61
2022-12-24T15:30:30.888Z,78.57
2022-12-24T15:33:46.184Z,79.15
2022-12-24T15:36:54.160Z,78.93
2022-12-24T15:40:22.611Z,77.54
2022-12-24T15:43:32.200Z,77.99
2022-12-24T15:46:40.985Z,80.22
2022-12-24T15:49:55.249Z,80.92
2022-12-24T15:53:18.693Z,81.50
2022-12-24T15:56:47.214Z,80.47
2022-12-24T16:00:02.235Z,80.24
2022-12-24T16:03:17.638Z,80.62
2022-12-24T16:06:27.192Z,81.27
2022-12-24T16:09:42.469Z,80.99
2022-12-24T16:12:51.303Z,81.40
2022-12-24T16:16:05.012Z,81.27
2022-12-24T16:19:22.168Z,82.17
2022-12-24T16:22:32.048Z,81.21
2022-12-24T16:25:54.269Z,82.85
2022-12-24T16:29:02.821Z,83.03
2022-12-24T16:32:34.188Z,82.05
2022-12-24T16:35:42.205Z,81.77
2022-12-24T16:38:57.230Z,82.44
2022-12-24T16:42:08.235Z,82.31
2022-12-24T16:45:23.284Z,80.51
2022-12-24T16:48:32.234Z,80.53
2022-12-24T16:51:40.833Z,81.56
2022-12-24T16:54:49.273Z,81.47
2022-12-24T16:58:05.291Z,81.49
2022-12-24T17:01:08.748Z,80.71
2022-12-24T17:04:25.258Z,80.22
2022-12-24T17:07:27.182Z,80.41
2022-12-24T17:10:43.238Z,80.99
2022-12-24T17:13:45.121Z,81.51
2022-12-24T17:17:00.323Z,81.72
2022-12-24T17:20:09.280Z,80.95
2022-12-24T17:23:24.262Z,80.90
2022-12-24T17:26:32.648Z,80.91
2022-12-24T17:29:48.225Z,81.04
2022-12-24T17:33:03.281Z,82.06
2022-12-24T17:36:11.950Z,82.05
2022-12-24T17:39:27.497Z,82.56
2022-12-24T17:42:42.260Z,82.73
2022-12-24T17:45:50.271Z,82.50
2022-12-24T17:48:58.984Z,83.04
2022-12-24T17:52:07.303Z,83.63
2022-12-24T17:55:22.260Z,84.25
2022-12-24T17:58:24.237Z,84.62
2022-12-24T18:01:39.382Z,84.87
2022-12-24T18:04:54.268Z,85.18
2022-12-24T18:07:56.145Z,85.25
2022-12-24T18:11:22.253Z,85.88
2022-12-24T18:14:37.264Z,86.36
2022-12-24T18:17:45.345Z,86.49
2022-12-24T18:21:00.322Z,86.36
2022-12-24T18:24:22.340Z,87.08
2022-12-24T18:27:30.953Z,87.25
2022-12-24T18:30:45.294Z,87.21
2022-12-24T18:33:55.014Z,87.42
2022-12-24T18:37:03.333Z,88.05
2022-12-24T18:40:12.320Z,88.18
2022-12-24T18:43:20.428Z,88.37
2022-12-24T18:46:39.319Z,88.44
2022-12-24T18:49:41.204Z,88.22
2022-12-24T18:52:57.505Z,87.93
2022-12-24T18:56:05.423Z,87.88
2022-12-24T18:59:20.298Z,88.00
2022-12-24T19:02:24.096Z,88.13
2022-12-24T19:05:39.301Z,88.65
2022-12-24T19:08:57.868Z,89.06
2022-12-24T19:12:14.281Z,89.66
2022-12-24T19:15:23.006Z,89.83
2022-12-24T19:18:38.345Z,90.44
2022-12-24T19:21:40.277Z,90.70
2022-12-24T19:24:56.369Z,91.25
2022-12-24T19:28:04.850Z,91.36
2022-12-24T19:31:24.396Z,91.14
2022-12-24T19:34:39.329Z,91.13
2022-12-24T19:37:41.280Z,91.14
2022-12-24T19:40:56.346Z,91.10
2022-12-24T19:44:05.120Z,91.42
2022-12-24T19:47:13.283Z,91.79
2022-12-24T19:50:22.177Z,91.83
2022-12-24T19:53:30.300Z,92.00
2022-12-24T19:56:39.965Z,92.23
2022-12-24T19:59:48.343Z,92.40
2022-12-24T20:03:03.401Z,92.18
2022-12-24T20:06:05.769Z,92.08
2022-12-24T20:09:21.361Z,92.10
2022-12-24T20:12:29.973Z,92.18
2022-12-24T20:15:38.369Z,92.11
2022-12-24T20:19:00.461Z,92.33
2022-12-24T20:22:09.575Z,92.41
2022-12-24T20:25:24.886Z,92.65
2022-12-24T20:28:35.541Z,92.96
2022-12-24T20:31:44.450Z,93.19
2022-12-24T20:34:52.357Z,92.89
2022-12-24T20:38:07.344Z,93.01
2022-12-24T20:41:25.480Z,93.13
2022-12-24T20:44:34.087Z,93.09
2022-12-24T20:47:42.372Z,93.06
2022-12-24T20:50:51.625Z,92.85
2022-12-24T20:54:07.393Z,93.32
2022-12-24T20:57:20.241Z,93.32
2022-12-24T21:00:31.443Z,93.36
2022-12-24T21:03:40.271Z,93.43
2022-12-24T21:06:55.398Z,93.57
2022-12-24T21:10:11.371Z,93.79
2022-12-24T21:13:16.421Z,93.94
2022-12-24T21:16:31.486Z,94.17
2022-12-24T21:19:40.429Z,94.19
2022-12-24T21:22:48.921Z,94.14
2022-12-24T21:26:07.395Z,94.03
2022-12-24T21:29:29.350Z,94.25
2022-12-24T21:32:31.327Z,93.97
2022-12-24T21:35:46.405Z,94.08
2022-12-24T21:38:48.705Z,94.30
2022-12-24T21:42:03.354Z,94.08
2022-12-24T21:45:12.498Z,94.11
2022-12-24T21:48:28.449Z,94.04
2022-12-24T21:51:31.028Z,94.04
2022-12-24T21:54:45.369Z,94.01
2022-12-24T21:57:53.407Z,93.73
2022-12-24T22:01:11.238Z,93.76
2022-12-24T22:04:26.415Z,93.74
2022-12-24T22:07:35.400Z,93.87
2022-12-24T22:10:50.420Z,94.39
2022-12-24T22:13:52.239Z,95.01
2022-12-24T22:17:07.546Z,95.00
2022-12-24T22:20:09.947Z,94.51
2022-12-24T22:23:25.394Z,94.43
2022-12-24T22:26:33.684Z,94.40
2022-12-24T22:29:48.409Z,94.82
2022-12-24T22:32:50.398Z,94.66
2022-12-24T22:36:05.418Z,94.79
2022-12-24T22:39:13.410Z,94.40
2022-12-24T22:42:22.055Z,94.27
2022-12-24T22:45:30.402Z,94.16
2022-12-24T22:48:40.524Z,94.27
2022-12-24T22:51:49.588Z,94.45
2022-12-24T22:55:04.447Z,94.72
2022-12-24T22:58:13.448Z,94.69
2022-12-24T23:01:33.179Z,94.74
2022-12-24T23:04:44.452Z,94.72
2022-12-24T23:07:59.448Z,94.76
2022-12-24T23:11:12.017Z,95.15
2022-12-24T23:14:28.431Z,95.18
2022-12-24T23:17:30.313Z,95.05
2022-12-24T23:20:48.432Z,94.85
2022-12-24T23:23:50.780Z,94.68
2022-12-24T23:27:07.454Z,94.64
2022-12-24T23:30:16.492Z,94.79
2022-12-24T23:33:26.758Z,94.69
2022-12-24T23:36:41.457Z,94.57
2022-12-24T23:39:43.422Z,94.73
2022-12-24T23:42:58.465Z,94.44
2022-12-24T23:46:07.498Z,94.22
2022-12-24T23:49:16.206Z,94.33
2022-12-24T23:52:30.489Z,94.21
2022-12-24T23:55:39.922Z,94.09
2022-12-24T23:58:49.490Z,94.16
